sensor_id;sensor_type;location;lat;lon;timestamp;pressure;altitude;pressure_sealevel;temperature;humidity
73073;BME280;61260;51.090;-1.786;2022-08-19T00:00:39;100655.08;;;19.98;80.84
73073;BME280;61260;51.090;-1.786;2022-08-19T00:03:07;100656.02;;;19.99;80.74
73073;BME280;61260;51.090;-1.786;2022-08-19T00:05:35;100650.33;;;20.01;80.65
73073;BME280;61260;51.090;-1.786;2022-08-19T00:08:03;100644.86;;;20.00;80.54
73073;BME280;61260;51.090;-1.786;2022-08-19T00:10:31;100643.36;;;19.98;80.62
73073;BME280;61260;51.090;-1.786;2022-08-19T00:12:59;100643.05;;;19.98;80.54
73073;BME280;61260;51.090;-1.786;2022-08-19T00:15:26;100643.02;;;19.99;80.51
73073;BME280;61260;51.090;-1.786;2022-08-19T00:17:54;100643.20;;;19.99;80.30
73073;BME280;61260;51.090;-1.786;2022-08-19T00:20:22;100643.35;;;19.99;80.19
73073;BME280;61260;51.090;-1.786;2022-08-19T00:22:50;100650.41;;;19.99;80.31
73073;BME280;61260;51.090;-1.786;2022-08-19T00:25:19;100654.36;;;19.99;80.01
73073;BME280;61260;51.090;-1.786;2022-08-19T00:27:46;100655.00;;;20.02;79.82
73073;BME280;61260;51.090;-1.786;2022-08-19T00:30:14;100654.74;;;20.06;79.66
73073;BME280;61260;51.090;-1.786;2022-08-19T00:32:42;100651.48;;;20.11;79.39
73073;BME280;61260;51.090;-1.786;2022-08-19T00:35:10;100658.34;;;20.13;79.14
73073;BME280;61260;51.090;-1.786;2022-08-19T00:37:38;100658.42;;;20.14;79.01
73073;BME280;61260;51.090;-1.786;2022-08-19T00:40:12;100659.92;;;20.14;79.26
73073;BME280;61260;51.090;-1.786;2022-08-19T00:42:40;100656.67;;;20.15;79.37
73073;BME280;61260;51.090;-1.786;2022-08-19T00:45:14;100653.42;;;20.16;79.63
73073;BME280;61260;51.090;-1.786;2022-08-19T00:47:42;100651.52;;;20.16;79.42
73073;BME280;61260;51.090;-1.786;2022-08-19T00:50:11;100648.42;;;20.15;79.35
73073;BME280;61260;51.090;-1.786;2022-08-19T00:52:41;100649.22;;;20.16;79.46
73073;BME280;61260;51.090;-1.786;2022-08-19T00:55:14;100649.20;;;20.16;79.57
73073;BME280;61260;51.090;-1.786;2022-08-19T00:57:47;100647.08;;;20.17;79.41
73073;BME280;61260;51.090;-1.786;2022-08-19T01:00:16;100645.41;;;20.16;79.38
73073;BME280;61260;51.090;-1.786;2022-08-19T01:02:45;100646.14;;;20.15;79.61
73073;BME280;61260;51.090;-1.786;2022-08-19T01:05:16;100643.91;;;20.14;79.55
73073;BME280;61260;51.090;-1.786;2022-08-19T01:07:47;100647.10;;;20.14;79.44
73073;BME280;61260;51.090;-1.786;2022-08-19T01:10:18;100645.92;;;20.13;79.52
73073;BME280;61260;51.090;-1.786;2022-08-19T01:12:47;100649.48;;;20.13;79.48
73073;BME280;61260;51.090;-1.786;2022-08-19T01:15:25;100647.73;;;20.12;79.70
73073;BME280;61260;51.090;-1.786;2022-08-19T01:17:54;100640.15;;;20.10;80.69
73073;BME280;61260;51.090;-1.786;2022-08-19T01:20:24;100639.22;;;20.07;81.26
73073;BME280;61260;51.090;-1.786;2022-08-19T01:22:53;100647.05;;;20.05;81.33
73073;BME280;61260;51.090;-1.786;2022-08-19T01:25:27;100643.19;;;20.03;81.45
73073;BME280;61260;51.090;-1.786;2022-08-19T01:27:57;100643.66;;;20.00;81.53
73073;BME280;61260;51.090;-1.786;2022-08-19T01:30:27;100642.10;;;19.97;81.85
73073;BME280;61260;51.090;-1.786;2022-08-19T01:32:55;100643.00;;;19.91;82.01
73073;BME280;61260;51.090;-1.786;2022-08-19T01:35:25;100644.77;;;19.86;82.25
73073;BME280;61260;51.090;-1.786;2022-08-19T01:37:56;100645.57;;;19.84;82.36
73073;BME280;61260;51.090;-1.786;2022-08-19T01:40:26;100648.60;;;19.81;82.05
73073;BME280;61260;51.090;-1.786;2022-08-19T01:42:54;100650.91;;;19.79;81.84
73073;BME280;61260;51.090;-1.786;2022-08-19T01:45:24;100647.92;;;19.77;81.75
73073;BME280;61260;51.090;-1.786;2022-08-19T01:47:52;100647.77;;;19.76;82.05
73073;BME280;61260;51.090;-1.786;2022-08-19T01:50:20;100647.30;;;19.73;81.59
73073;BME280;61260;51.090;-1.786;2022-08-19T01:52:48;100656.64;;;19.71;81.64
73073;BME280;61260;51.090;-1.786;2022-08-19T01:55:18;100654.98;;;19.71;81.80
73073;BME280;61260;51.090;-1.786;2022-08-19T01:57:49;100654.27;;;19.70;81.33
73073;BME280;61260;51.090;-1.786;2022-08-19T02:00:21;100656.64;;;19.71;81.27
73073;BME280;61260;51.090;-1.786;2022-08-19T02:02:49;100658.62;;;19.71;81.20
73073;BME280;61260;51.090;-1.786;2022-08-19T02:05:17;100658.70;;;19.72;81.21
73073;BME280;61260;51.090;-1.786;2022-08-19T02:07:45;100656.89;;;19.73;81.10
73073;BME280;61260;51.090;-1.786;2022-08-19T02:10:15;100659.89;;;19.75;80.84
73073;BME280;61260;51.090;-1.786;2022-08-19T02:12:44;100658.20;;;19.77;80.84
73073;BME280;61260;51.090;-1.786;2022-08-19T02:15:12;100655.92;;;19.76;80.72
73073;BME280;61260;51.090;-1.786;2022-08-19T02:17:41;100659.65;;;19.74;80.67
73073;BME280;61260;51.090;-1.786;2022-08-19T02:20:11;100666.30;;;19.75;80.45
73073;BME280;61260;51.090;-1.786;2022-08-19T02:22:39;100667.73;;;19.74;80.22
73073;BME280;61260;51.090;-1.786;2022-08-19T02:25:09;100668.59;;;19.73;80.33
73073;BME280;61260;51.090;-1.786;2022-08-19T02:27:37;100670.10;;;19.70;80.33
73073;BME280;61260;51.090;-1.786;2022-08-19T02:30:08;100674.87;;;19.68;80.19
73073;BME280;61260;51.090;-1.786;2022-08-19T02:32:37;100678.83;;;19.69;80.29
73073;BME280;61260;51.090;-1.786;2022-08-19T02:35:07;100673.03;;;19.71;80.16
73073;BME280;61260;51.090;-1.786;2022-08-19T02:37:35;100667.49;;;19.69;80.09
73073;BME280;61260;51.090;-1.786;2022-08-19T02:40:17;100668.13;;;19.69;80.07
73073;BME280;61260;51.090;-1.786;2022-08-19T02:42:45;100665.70;;;19.65;79.67
73073;BME280;61260;51.090;-1.786;2022-08-19T02:45:13;100661.23;;;19.59;79.76
73073;BME280;61260;51.090;-1.786;2022-08-19T02:47:41;100660.69;;;19.54;79.89
73073;BME280;61260;51.090;-1.786;2022-08-19T02:50:10;100662.60;;;19.49;79.93
73073;BME280;61260;51.090;-1.786;2022-08-19T02:52:37;100661.29;;;19.42;79.68
73073;BME280;61260;51.090;-1.786;2022-08-19T02:55:07;100663.61;;;19.31;79.68
73073;BME280;61260;51.090;-1.786;2022-08-19T02:57:34;100661.58;;;19.22;79.87
73073;BME280;61260;51.090;-1.786;2022-08-19T03:00:05;100664.34;;;19.13;80.06
73073;BME280;61260;51.090;-1.786;2022-08-19T03:02:35;100666.41;;;19.04;80.21
73073;BME280;61260;51.090;-1.786;2022-08-19T03:05:04;100672.98;;;18.97;80.43
73073;BME280;61260;51.090;-1.786;2022-08-19T03:07:32;100682.33;;;18.94;80.78
73073;BME280;61260;51.090;-1.786;2022-08-19T03:09:59;100684.92;;;18.96;81.50
73073;BME280;61260;51.090;-1.786;2022-08-19T03:12:27;100685.55;;;18.99;81.58
73073;BME280;61260;51.090;-1.786;2022-08-19T03:14:55;100685.25;;;19.02;80.94
73073;BME280;61260;51.090;-1.786;2022-08-19T03:17:22;100681.36;;;19.04;81.06
73073;BME280;61260;51.090;-1.786;2022-08-19T03:19:50;100683.89;;;19.06;81.02
73073;BME280;61260;51.090;-1.786;2022-08-19T03:22:17;100684.05;;;19.07;80.95
73073;BME280;61260;51.090;-1.786;2022-08-19T03:24:45;100687.05;;;19.09;81.53
73073;BME280;61260;51.090;-1.786;2022-08-19T03:27:13;100687.19;;;19.10;81.96
73073;BME280;61260;51.090;-1.786;2022-08-19T03:29:40;100688.30;;;19.10;82.21
73073;BME280;61260;51.090;-1.786;2022-08-19T03:32:08;100696.29;;;19.10;82.49
73073;BME280;61260;51.090;-1.786;2022-08-19T03:34:37;100706.11;;;19.08;82.67
73073;BME280;61260;51.090;-1.786;2022-08-19T03:37:07;100705.89;;;19.04;83.36
73073;BME280;61260;51.090;-1.786;2022-08-19T03:39:37;100708.02;;;18.98;83.22
73073;BME280;61260;51.090;-1.786;2022-08-19T03:42:06;100704.78;;;18.89;82.93
73073;BME280;61260;51.090;-1.786;2022-08-19T03:44:33;100699.16;;;18.81;82.83
73073;BME280;61260;51.090;-1.786;2022-08-19T03:47:04;100699.48;;;18.76;82.82
73073;BME280;61260;51.090;-1.786;2022-08-19T03:49:33;100700.36;;;18.71;82.90
73073;BME280;61260;51.090;-1.786;2022-08-19T03:52:02;100703.36;;;18.66;83.26
73073;BME280;61260;51.090;-1.786;2022-08-19T03:54:32;100708.66;;;18.64;83.07
73073;BME280;61260;51.090;-1.786;2022-08-19T03:57:00;100703.36;;;18.62;83.44
73073;BME280;61260;51.090;-1.786;2022-08-19T03:59:29;100703.04;;;18.61;83.57
73073;BME280;61260;51.090;-1.786;2022-08-19T04:01:58;100701.93;;;18.59;83.07
73073;BME280;61260;51.090;-1.786;2022-08-19T04:04:26;100704.54;;;18.56;83.13
73073;BME280;61260;51.090;-1.786;2022-08-19T04:06:54;100712.29;;;18.54;83.83
73073;BME280;61260;51.090;-1.786;2022-08-19T04:09:22;100718.52;;;18.54;83.59
73073;BME280;61260;51.090;-1.786;2022-08-19T04:11:52;100717.98;;;18.56;83.73
73073;BME280;61260;51.090;-1.786;2022-08-19T04:14:22;100714.73;;;18.56;83.46
73073;BME280;61260;51.090;-1.786;2022-08-19T04:16:51;100715.69;;;18.55;83.42
73073;BME280;61260;51.090;-1.786;2022-08-19T04:19:19;100713.71;;;18.57;83.59
73073;BME280;61260;51.090;-1.786;2022-08-19T04:21:49;100708.02;;;18.56;83.63
73073;BME280;61260;51.090;-1.786;2022-08-19T04:24:19;100713.48;;;18.52;83.52
73073;BME280;61260;51.090;-1.786;2022-08-19T04:26:47;100710.95;;;18.50;83.19
73073;BME280;61260;51.090;-1.786;2022-08-19T04:29:17;100708.72;;;18.47;83.36
73073;BME280;61260;51.090;-1.786;2022-08-19T04:31:45;100714.88;;;18.44;83.11
73073;BME280;61260;51.090;-1.786;2022-08-19T04:34:16;100712.73;;;18.36;82.90
73073;BME280;61260;51.090;-1.786;2022-08-19T04:36:49;100718.65;;;18.31;83.29
73073;BME280;61260;51.090;-1.786;2022-08-19T04:39:20;100719.88;;;18.25;83.37
73073;BME280;61260;51.090;-1.786;2022-08-19T04:41:48;100714.02;;;18.20;83.61
73073;BME280;61260;51.090;-1.786;2022-08-19T04:44:35;100717.34;;;18.15;83.68
73073;BME280;61260;51.090;-1.786;2022-08-19T04:47:04;100726.94;;;18.12;83.46
73073;BME280;61260;51.090;-1.786;2022-08-19T04:49:33;100731.27;;;18.09;83.44
73073;BME280;61260;51.090;-1.786;2022-08-19T04:52:01;100727.00;;;18.06;83.37
73073;BME280;61260;51.090;-1.786;2022-08-19T04:54:28;100728.17;;;18.03;83.57
73073;BME280;61260;51.090;-1.786;2022-08-19T04:56:56;100737.09;;;18.01;83.44
73073;BME280;61260;51.090;-1.786;2022-08-19T04:59:23;100732.44;;;17.98;83.52
73073;BME280;61260;51.090;-1.786;2022-08-19T05:01:51;100731.65;;;17.98;83.66
73073;BME280;61260;51.090;-1.786;2022-08-19T05:04:20;100737.19;;;18.00;83.85
73073;BME280;61260;51.090;-1.786;2022-08-19T05:06:48;100740.34;;;18.00;83.92
73073;BME280;61260;51.090;-1.786;2022-08-19T05:09:16;100741.28;;;18.00;83.61
73073;BME280;61260;51.090;-1.786;2022-08-19T05:11:44;100737.89;;;18.00;83.70
73073;BME280;61260;51.090;-1.786;2022-08-19T05:14:12;100737.66;;;17.99;83.66
73073;BME280;61260;51.090;-1.786;2022-08-19T05:16:40;100750.27;;;17.97;83.58
73073;BME280;61260;51.090;-1.786;2022-08-19T05:19:08;100752.81;;;18.00;83.87
73073;BME280;61260;51.090;-1.786;2022-08-19T05:21:54;100753.46;;;18.05;84.00
73073;BME280;61260;51.090;-1.786;2022-08-19T05:24:40;100756.47;;;18.09;83.90
73073;BME280;61260;51.090;-1.786;2022-08-19T05:27:08;100759.63;;;18.11;84.07
73073;BME280;61260;51.090;-1.786;2022-08-19T05:29:35;100757.66;;;18.12;83.79
73073;BME280;61260;51.090;-1.786;2022-08-19T05:32:05;100763.85;;;18.16;83.82
73073;BME280;61260;51.090;-1.786;2022-08-19T05:34:38;100766.70;;;18.18;83.57
73073;BME280;61260;51.090;-1.786;2022-08-19T05:37:06;100771.45;;;18.20;83.38
73073;BME280;61260;51.090;-1.786;2022-08-19T05:39:36;100773.72;;;18.22;83.42
73073;BME280;61260;51.090;-1.786;2022-08-19T05:42:06;100774.69;;;18.24;83.16
73073;BME280;61260;51.090;-1.786;2022-08-19T05:44:38;100776.78;;;18.27;83.01
73073;BME280;61260;51.090;-1.786;2022-08-19T05:47:07;100782.95;;;18.30;83.18
73073;BME280;61260;51.090;-1.786;2022-08-19T05:49:35;100780.34;;;18.30;82.63
73073;BME280;61260;51.090;-1.786;2022-08-19T05:52:05;100776.86;;;18.30;82.34
73073;BME280;61260;51.090;-1.786;2022-08-19T05:54:33;100778.54;;;18.32;82.28
73073;BME280;61260;51.090;-1.786;2022-08-19T05:57:02;100775.55;;;18.35;82.12
73073;BME280;61260;51.090;-1.786;2022-08-19T05:59:30;100780.45;;;18.37;81.83
73073;BME280;61260;51.090;-1.786;2022-08-19T06:01:58;100781.40;;;18.37;81.44
73073;BME280;61260;51.090;-1.786;2022-08-19T06:04:27;100783.30;;;18.39;81.59
73073;BME280;61260;51.090;-1.786;2022-08-19T06:06:56;100785.99;;;18.41;81.27
73073;BME280;61260;51.090;-1.786;2022-08-19T06:09:24;100782.60;;;18.42;81.26
73073;BME280;61260;51.090;-1.786;2022-08-19T06:11:53;100784.09;;;18.44;81.16
73073;BME280;61260;51.090;-1.786;2022-08-19T06:14:23;100783.70;;;18.46;80.75
73073;BME280;61260;51.090;-1.786;2022-08-19T06:16:51;100783.95;;;18.46;80.66
73073;BME280;61260;51.090;-1.786;2022-08-19T06:19:21;100785.29;;;18.45;80.19
73073;BME280;61260;51.090;-1.786;2022-08-19T06:21:52;100786.77;;;18.41;80.01
73073;BME280;61260;51.090;-1.786;2022-08-19T06:24:22;100779.66;;;18.39;79.71
73073;BME280;61260;51.090;-1.786;2022-08-19T06:26:52;100778.15;;;18.38;79.62
73073;BME280;61260;51.090;-1.786;2022-08-19T06:29:23;100778.79;;;18.36;79.63
73073;BME280;61260;51.090;-1.786;2022-08-19T06:31:53;100784.16;;;18.35;79.74
73073;BME280;61260;51.090;-1.786;2022-08-19T06:34:22;100785.02;;;18.34;79.63
73073;BME280;61260;51.090;-1.786;2022-08-19T06:36:52;100790.15;;;18.32;79.46
73073;BME280;61260;51.090;-1.786;2022-08-19T06:39:23;100791.08;;;18.30;79.17
73073;BME280;61260;51.090;-1.786;2022-08-19T06:41:53;100788.16;;;18.29;79.17
73073;BME280;61260;51.090;-1.786;2022-08-19T06:44:24;100789.49;;;18.28;79.19
73073;BME280;61260;51.090;-1.786;2022-08-19T06:46:53;100790.80;;;18.25;79.03
73073;BME280;61260;51.090;-1.786;2022-08-19T06:49:21;100789.46;;;18.25;79.02
73073;BME280;61260;51.090;-1.786;2022-08-19T06:51:50;100797.62;;;18.27;79.00
73073;BME280;61260;51.090;-1.786;2022-08-19T06:54:18;100795.04;;;18.30;78.91
73073;BME280;61260;51.090;-1.786;2022-08-19T06:56:47;100799.02;;;18.35;78.93
73073;BME280;61260;51.090;-1.786;2022-08-19T06:59:17;100799.58;;;18.41;78.96
73073;BME280;61260;51.090;-1.786;2022-08-19T07:01:46;100806.64;;;18.52;78.54
73073;BME280;61260;51.090;-1.786;2022-08-19T07:04:16;100813.08;;;18.61;78.56
73073;BME280;61260;51.090;-1.786;2022-08-19T07:06:44;100814.05;;;18.75;78.03
73073;BME280;61260;51.090;-1.786;2022-08-19T07:09:14;100823.07;;;18.85;77.68
73073;BME280;61260;51.090;-1.786;2022-08-19T07:11:46;100827.83;;;18.96;77.42
73073;BME280;61260;51.090;-1.786;2022-08-19T07:14:14;100822.23;;;19.04;76.57
73073;BME280;61260;51.090;-1.786;2022-08-19T07:16:45;100822.46;;;19.12;76.32
73073;BME280;61260;51.090;-1.786;2022-08-19T07:19:13;100826.54;;;19.21;76.16
73073;BME280;61260;51.090;-1.786;2022-08-19T07:21:42;100825.66;;;19.28;75.54
73073;BME280;61260;51.090;-1.786;2022-08-19T07:24:09;100823.27;;;19.32;74.67
73073;BME280;61260;51.090;-1.786;2022-08-19T07:26:40;100826.21;;;19.37;74.55
73073;BME280;61260;51.090;-1.786;2022-08-19T07:29:09;100828.97;;;19.47;74.28
73073;BME280;61260;51.090;-1.786;2022-08-19T07:31:36;100829.52;;;19.60;74.33
73073;BME280;61260;51.090;-1.786;2022-08-19T07:34:05;100833.93;;;19.74;73.70
73073;BME280;61260;51.090;-1.786;2022-08-19T07:36:35;100833.04;;;19.80;72.73
73073;BME280;61260;51.090;-1.786;2022-08-19T07:39:07;100828.60;;;19.84;71.93
73073;BME280;61260;51.090;-1.786;2022-08-19T07:41:35;100827.07;;;19.88;69.96
73073;BME280;61260;51.090;-1.786;2022-08-19T07:44:05;100831.17;;;19.98;69.08
73073;BME280;61260;51.090;-1.786;2022-08-19T07:46:37;100835.42;;;20.13;67.60
73073;BME280;61260;51.090;-1.786;2022-08-19T07:49:05;100837.10;;;20.30;67.98
73073;BME280;61260;51.090;-1.786;2022-08-19T07:51:34;100833.20;;;20.50;67.17
73073;BME280;61260;51.090;-1.786;2022-08-19T07:54:01;100831.30;;;20.64;65.01
73073;BME280;61260;51.090;-1.786;2022-08-19T07:56:29;100829.15;;;20.80;64.94
73073;BME280;61260;51.090;-1.786;2022-08-19T07:58:57;100830.33;;;21.05;64.78
73073;BME280;61260;51.090;-1.786;2022-08-19T08:01:26;100827.37;;;21.38;63.80
73073;BME280;61260;51.090;-1.786;2022-08-19T08:03:55;100833.27;;;21.79;60.99
73073;BME280;61260;51.090;-1.786;2022-08-19T08:06:41;100838.03;;;22.09;60.24
73073;BME280;61260;51.090;-1.786;2022-08-19T08:09:30;100843.86;;;22.26;58.41
73073;BME280;61260;51.090;-1.786;2022-08-19T08:12:01;100846.63;;;22.34;57.27
73073;BME280;61260;51.090;-1.786;2022-08-19T08:14:31;100849.45;;;22.38;56.99
73073;BME280;61260;51.090;-1.786;2022-08-19T08:16:59;100851.10;;;22.53;57.05
73073;BME280;61260;51.090;-1.786;2022-08-19T08:19:27;100855.68;;;22.73;55.40
73073;BME280;61260;51.090;-1.786;2022-08-19T08:21:56;100856.05;;;22.86;53.83
73073;BME280;61260;51.090;-1.786;2022-08-19T08:24:26;100858.22;;;23.06;53.91
73073;BME280;61260;51.090;-1.786;2022-08-19T08:26:53;100861.52;;;23.15;52.57
73073;BME280;61260;51.090;-1.786;2022-08-19T08:29:21;100861.27;;;23.12;52.88
73073;BME280;61260;51.090;-1.786;2022-08-19T08:31:49;100860.86;;;23.12;52.87
73073;BME280;61260;51.090;-1.786;2022-08-19T08:34:16;100861.19;;;23.05;51.12
73073;BME280;61260;51.090;-1.786;2022-08-19T08:36:45;100866.10;;;22.90;51.67
73073;BME280;61260;51.090;-1.786;2022-08-19T08:39:15;100859.70;;;22.76;51.12
73073;BME280;61260;51.090;-1.786;2022-08-19T08:41:49;100869.27;;;22.63;52.14
73073;BME280;61260;51.090;-1.786;2022-08-19T08:44:23;100871.48;;;22.58;51.34
73073;BME280;61260;51.090;-1.786;2022-08-19T08:46:59;100878.98;;;22.57;50.96
73073;BME280;61260;51.090;-1.786;2022-08-19T08:49:31;100879.94;;;22.62;49.78
73073;BME280;61260;51.090;-1.786;2022-08-19T08:52:04;100883.70;;;22.60;49.08
73073;BME280;61260;51.090;-1.786;2022-08-19T08:54:36;100885.13;;;22.66;49.64
73073;BME280;61260;51.090;-1.786;2022-08-19T08:57:09;100880.61;;;22.83;49.30
73073;BME280;61260;51.090;-1.786;2022-08-19T08:59:40;100883.36;;;23.02;48.29
73073;BME280;61260;51.090;-1.786;2022-08-19T09:02:09;100880.08;;;23.16;46.86
73073;BME280;61260;51.090;-1.786;2022-08-19T09:04:37;100884.31;;;23.35;45.17
73073;BME280;61260;51.090;-1.786;2022-08-19T09:07:20;100885.91;;;23.63;46.60
73073;BME280;61260;51.090;-1.786;2022-08-19T09:09:51;100884.41;;;23.95;44.89
73073;BME280;61260;51.090;-1.786;2022-08-19T09:12:31;100883.52;;;24.08;43.14
73073;BME280;61260;51.090;-1.786;2022-08-19T09:15:06;100885.91;;;24.43;43.55
73073;BME280;61260;51.090;-1.786;2022-08-19T09:17:35;100886.47;;;24.85;44.76
73073;BME280;61260;51.090;-1.786;2022-08-19T09:20:06;100883.03;;;25.24;42.29
73073;BME280;61260;51.090;-1.786;2022-08-19T09:22:35;100876.30;;;25.58;41.61
73073;BME280;61260;51.090;-1.786;2022-08-19T09:25:06;100871.58;;;26.04;39.28
73073;BME280;61260;51.090;-1.786;2022-08-19T09:27:35;100876.14;;;26.46;37.19
73073;BME280;61260;51.090;-1.786;2022-08-19T09:30:10;100881.40;;;26.66;36.20
73073;BME280;61260;51.090;-1.786;2022-08-19T09:32:38;100885.44;;;26.86;35.93
73073;BME280;61260;51.090;-1.786;2022-08-19T09:35:09;100884.30;;;26.89;33.94
73073;BME280;61260;51.090;-1.786;2022-08-19T09:37:38;100891.42;;;26.95;33.99
73073;BME280;61260;51.090;-1.786;2022-08-19T09:40:07;100898.77;;;26.87;34.02
73073;BME280;61260;51.090;-1.786;2022-08-19T09:42:35;100900.10;;;26.83;35.01
73073;BME280;61260;51.090;-1.786;2022-08-19T09:45:03;100898.22;;;26.80;34.13
73073;BME280;61260;51.090;-1.786;2022-08-19T09:47:31;100896.52;;;26.70;33.66
73073;BME280;61260;51.090;-1.786;2022-08-19T09:50:06;100898.45;;;26.59;34.23
73073;BME280;61260;51.090;-1.786;2022-08-19T09:52:35;100897.96;;;26.82;34.09
73073;BME280;61260;51.090;-1.786;2022-08-19T09:55:04;100897.02;;;27.29;34.10
73073;BME280;61260;51.090;-1.786;2022-08-19T09:57:32;100899.98;;;27.24;32.32
73073;BME280;61260;51.090;-1.786;2022-08-19T10:00:00;100902.23;;;27.41;32.83
73073;BME280;61260;51.090;-1.786;2022-08-19T10:02:27;100897.46;;;27.95;31.47
73073;BME280;61260;51.090;-1.786;2022-08-19T10:04:57;100899.09;;;28.36;31.92
73073;BME280;61260;51.090;-1.786;2022-08-19T10:07:43;100905.52;;;28.64;30.82
73073;BME280;61260;51.090;-1.786;2022-08-19T10:10:11;100909.11;;;29.12;29.50
73073;BME280;61260;51.090;-1.786;2022-08-19T10:12:39;100905.77;;;29.57;28.68
73073;BME280;61260;51.090;-1.786;2022-08-19T10:15:08;100903.83;;;29.65;27.89
73073;BME280;61260;51.090;-1.786;2022-08-19T10:17:35;100905.14;;;29.63;28.25
73073;BME280;61260;51.090;-1.786;2022-08-19T10:20:05;100900.05;;;30.17;28.19
73073;BME280;61260;51.090;-1.786;2022-08-19T10:22:33;100895.17;;;30.81;27.46
73073;BME280;61260;51.090;-1.786;2022-08-19T10:25:06;100893.05;;;30.99;25.42
73073;BME280;61260;51.090;-1.786;2022-08-19T10:27:34;100894.70;;;31.32;25.18
73073;BME280;61260;51.090;-1.786;2022-08-19T10:30:02;100899.09;;;31.52;23.81
73073;BME280;61260;51.090;-1.786;2022-08-19T10:32:29;100904.36;;;31.65;25.11
73073;BME280;61260;51.090;-1.786;2022-08-19T10:34:58;100904.20;;;32.04;24.27
73073;BME280;61260;51.090;-1.786;2022-08-19T10:37:25;100908.71;;;32.26;24.94
73073;BME280;61260;51.090;-1.786;2022-08-19T10:39:53;100907.58;;;32.27;24.71
73073;BME280;61260;51.090;-1.786;2022-08-19T10:42:20;100907.17;;;32.51;23.96
73073;BME280;61260;51.090;-1.786;2022-08-19T10:44:48;100906.68;;;32.73;23.20
73073;BME280;61260;51.090;-1.786;2022-08-19T10:47:17;100905.41;;;32.80;22.92
73073;BME280;61260;51.090;-1.786;2022-08-19T10:49:45;100907.25;;;32.47;22.74
73073;BME280;61260;51.090;-1.786;2022-08-19T10:52:30;100903.33;;;32.54;22.25
73073;BME280;61260;51.090;-1.786;2022-08-19T10:55:00;100898.31;;;32.88;22.16
73073;BME280;61260;51.090;-1.786;2022-08-19T10:57:46;100895.17;;;33.07;21.56
73073;BME280;61260;51.090;-1.786;2022-08-19T11:00:14;100900.31;;;33.16;21.18
73073;BME280;61260;51.090;-1.786;2022-08-19T11:02:42;100907.63;;;32.82;21.54
73073;BME280;61260;51.090;-1.786;2022-08-19T11:05:10;100906.93;;;33.02;21.82
73073;BME280;61260;51.090;-1.786;2022-08-19T11:07:38;100910.32;;;33.13;21.51
73073;BME280;61260;51.090;-1.786;2022-08-19T11:10:08;100903.54;;;32.90;21.33
73073;BME280;61260;51.090;-1.786;2022-08-19T11:12:37;100904.37;;;32.76;21.71
73073;BME280;61260;51.090;-1.786;2022-08-19T11:15:07;100910.36;;;33.01;21.92
73073;BME280;61260;51.090;-1.786;2022-08-19T11:17:38;100907.23;;;33.49;21.62
73073;BME280;61260;51.090;-1.786;2022-08-19T11:20:09;100910.31;;;33.52;21.40
73073;BME280;61260;51.090;-1.786;2022-08-19T11:22:37;100912.48;;;33.87;21.54
73073;BME280;61260;51.090;-1.786;2022-08-19T11:25:07;100905.11;;;34.22;20.83
73073;BME280;61260;51.090;-1.786;2022-08-19T11:27:38;100911.80;;;34.39;20.51
73073;BME280;61260;51.090;-1.786;2022-08-19T11:30:09;100906.66;;;34.53;19.81
73073;BME280;61260;51.090;-1.786;2022-08-19T11:32:37;100904.30;;;34.51;20.46
73073;BME280;61260;51.090;-1.786;2022-08-19T11:35:06;100906.77;;;34.55;20.84
73073;BME280;61260;51.090;-1.786;2022-08-19T11:37:34;100900.87;;;34.63;19.99
73073;BME280;61260;51.090;-1.786;2022-08-19T11:40:06;100905.27;;;34.59;19.90
73073;BME280;61260;51.090;-1.786;2022-08-19T11:42:33;100914.02;;;34.35;19.68
73073;BME280;61260;51.090;-1.786;2022-08-19T11:45:20;100905.64;;;34.12;20.46
73073;BME280;61260;51.090;-1.786;2022-08-19T11:47:47;100903.40;;;34.13;19.65
73073;BME280;61260;51.090;-1.786;2022-08-19T11:50:15;100909.48;;;34.02;21.02
73073;BME280;61260;51.090;-1.786;2022-08-19T11:52:44;100914.70;;;34.26;20.63
73073;BME280;61260;51.090;-1.786;2022-08-19T11:55:12;100907.80;;;33.92;20.08
73073;BME280;61260;51.090;-1.786;2022-08-19T11:57:40;100906.74;;;33.34;21.20
73073;BME280;61260;51.090;-1.786;2022-08-19T12:00:11;100908.57;;;33.07;21.73
73073;BME280;61260;51.090;-1.786;2022-08-19T12:02:40;100905.50;;;33.14;21.85
73073;BME280;61260;51.090;-1.786;2022-08-19T12:05:08;100909.55;;;33.29;21.84
73073;BME280;61260;51.090;-1.786;2022-08-19T12:07:36;100907.20;;;33.34;22.33
73073;BME280;61260;51.090;-1.786;2022-08-19T12:10:05;100905.86;;;33.46;21.72
73073;BME280;61260;51.090;-1.786;2022-08-19T12:12:32;100905.39;;;32.74;22.14
73073;BME280;61260;51.090;-1.786;2022-08-19T12:15:00;100905.29;;;31.91;23.06
73073;BME280;61260;51.090;-1.786;2022-08-19T12:17:27;100909.34;;;31.19;23.87
73073;BME280;61260;51.090;-1.786;2022-08-19T12:19:55;100908.30;;;31.17;24.31
73073;BME280;61260;51.090;-1.786;2022-08-19T12:22:23;100912.42;;;31.32;24.22
73073;BME280;61260;51.090;-1.786;2022-08-19T12:24:50;100916.55;;;30.83;24.96
73073;BME280;61260;51.090;-1.786;2022-08-19T12:27:20;100914.49;;;30.99;24.73
73073;BME280;61260;51.090;-1.786;2022-08-19T12:29:47;100918.51;;;30.74;25.08
73073;BME280;61260;51.090;-1.786;2022-08-19T12:32:16;100921.61;;;30.05;25.89
73073;BME280;61260;51.090;-1.786;2022-08-19T12:34:43;100922.41;;;29.84;26.24
73073;BME280;61260;51.090;-1.786;2022-08-19T12:37:11;100911.98;;;30.33;25.96
73073;BME280;61260;51.090;-1.786;2022-08-19T12:39:41;100910.17;;;30.76;25.25
73073;BME280;61260;51.090;-1.786;2022-08-19T12:42:09;100910.42;;;31.22;24.37
73073;BME280;61260;51.090;-1.786;2022-08-19T12:44:38;100901.88;;;31.42;23.83
73073;BME280;61260;51.090;-1.786;2022-08-19T12:47:07;100902.58;;;31.50;24.62
73073;BME280;61260;51.090;-1.786;2022-08-19T12:49:36;100909.52;;;31.02;24.62
73073;BME280;61260;51.090;-1.786;2022-08-19T12:52:05;100907.60;;;30.32;25.18